createdAt,value
2019-03-01T00:00:36.324Z,27.70
2019-03-01T00:01:36.293Z,27.70
2019-03-01T00:02:36.264Z,28.40
2019-03-01T00:03:36.236Z,27.90
2019-03-01T00:04:36.208Z,27.40
2019-03-01T00:05:36.176Z,28.30
2019-03-01T00:06:36.149Z,28.10
2019-03-01T00:07:36.121Z,29.10
2019-03-01T00:08:36.091Z,28.00
2019-03-01T00:09:36.060Z,28.70
2019-03-01T00:10:36.033Z,28.80
2019-03-01T00:11:36.011Z,27.90
2019-03-01T00:12:35.974Z,29.70
2019-03-01T00:13:35.944Z,27.70
2019-03-01T00:14:35.917Z,28.70
2019-03-01T00:15:35.890Z,28.60
2019-03-01T00:16:35.859Z,28.50
2019-03-01T00:17:35.839Z,29.40
2019-03-01T00:18:35.799Z,27.80
2019-03-01T00:19:35.772Z,28.80
2019-03-01T00:20:35.867Z,27.30
2019-03-01T00:21:35.713Z,28.00
2019-03-01T00:22:35.683Z,28.20
2019-03-01T00:23:35.656Z,28.00
2019-03-01T00:24:35.627Z,27.80
2019-03-01T00:25:35.595Z,28.30
2019-03-01T00:26:35.567Z,29.00
2019-03-01T00:27:35.538Z,28.50
2019-03-01T00:28:35.512Z,28.30
2019-03-01T00:29:35.480Z,29.40
2019-03-01T00:30:35.452Z,27.70
2019-03-01T00:31:35.422Z,28.20
2019-03-01T00:32:35.393Z,28.70
2019-03-01T00:33:35.364Z,28.00
2019-03-01T00:34:35.335Z,27.20
2019-03-01T00:35:35.305Z,28.30
2019-03-01T00:36:35.279Z,27.50
2019-03-01T00:37:35.247Z,29.70
2019-03-01T00:38:35.218Z,26.90
2019-03-01T00:39:35.192Z,27.50
2019-03-01T00:40:35.161Z,26.50
2019-03-01T00:41:35.131Z,27.60
2019-03-01T00:42:35.102Z,27.20
2019-03-01T00:43:35.074Z,28.00
2019-03-01T00:44:35.043Z,28.20
2019-03-01T00:45:35.015Z,29.00
2019-03-01T00:46:34.986Z,28.00
2019-03-01T00:47:34.955Z,28.40
2019-03-01T00:48:34.926Z,27.30
2019-03-01T00:49:34.896Z,27.20
2019-03-01T00:50:34.868Z,27.80
2019-03-01T00:51:34.840Z,28.20
2019-03-01T00:52:34.820Z,27.10
2019-03-01T00:53:34.781Z,28.20
2019-03-01T00:54:34.752Z,28.40
2019-03-01T00:55:34.722Z,29.30
2019-03-01T00:56:34.692Z,29.60
2019-03-01T00:57:34.664Z,28.40
2019-03-01T00:58:34.635Z,28.30
2019-03-01T00:59:34.605Z,28.90
2019-03-01T01:00:34.576Z,28.50
2019-03-01T01:01:34.545Z,27.70
2019-03-01T01:02:34.517Z,27.60
2019-03-01T01:03:34.488Z,27.40
2019-03-01T01:04:34.460Z,28.50
2019-03-01T01:05:34.430Z,27.50
2019-03-01T01:06:34.402Z,27.50
2019-03-01T01:07:34.371Z,27.60
2019-03-01T01:08:34.345Z,28.10
2019-03-01T01:09:34.313Z,28.00
2019-03-01T01:10:34.284Z,27.50
2019-03-01T01:11:34.255Z,28.60
2019-03-01T01:12:34.226Z,28.00
2019-03-01T01:13:34.197Z,29.10
2019-03-01T01:14:34.167Z,28.90
2019-03-01T01:15:34.140Z,29.50
2019-03-01T01:16:34.110Z,28.30
2019-03-01T01:17:34.078Z,28.30
2019-03-01T01:18:34.050Z,29.60
2019-03-01T01:19:34.023Z,29.60
2019-03-01T01:20:33.992Z,29.50
2019-03-01T01:21:33.962Z,31.30
2019-03-01T01:22:33.934Z,29.80
2019-03-01T01:23:33.903Z,29.80
2019-03-01T01:24:33.876Z,31.10
2019-03-01T01:25:33.845Z,32.40
2019-03-01T01:26:33.819Z,33.60
2019-03-01T01:27:33.789Z,32.10
2019-03-01T01:28:33.757Z,32.40
2019-03-01T01:29:33.726Z,31.90
2019-03-01T01:30:33.697Z,34.70
2019-03-01T01:31:33.669Z,36.00
2019-03-01T01:32:33.639Z,36.20
2019-03-01T01:33:33.608Z,36.90
2019-03-01T01:34:33.578Z,36.70
2019-03-01T01:35:33.551Z,35.40
2019-03-01T01:36:33.522Z,36.20
2019-03-01T01:37:33.489Z,36.50
2019-03-01T01:38:33.460Z,36.70
2019-03-01T01:39:33.435Z,36.80
2019-03-01T01:40:33.401Z,38.10
2019-03-01T01:41:33.372Z,36.90
2019-03-01T01:42:33.342Z,38.00
2019-03-01T01:43:33.313Z,39.00
2019-03-01T01:44:33.282Z,38.60
2019-03-01T01:45:33.253Z,38.80
2019-03-01T01:46:33.223Z,38.40
2019-03-01T01:47:33.192Z,38.60
2019-03-01T01:48:33.170Z,38.90
2019-03-01T01:49:33.139Z,40.90
2019-03-01T01:50:33.106Z,38.50
2019-03-01T01:51:33.073Z,39.90
2019-03-01T01:52:33.045Z,42.00
2019-03-01T01:53:33.014Z,42.90
2019-03-01T01:54:32.986Z,42.60
2019-03-01T01:55:32.953Z,42.00
2019-03-01T01:56:32.925Z,42.40
2019-03-01T01:57:32.898Z,42.10
2019-03-01T01:58:32.864Z,42.50
2019-03-01T01:59:32.835Z,42.20
2019-03-01T02:00:32.804Z,42.70
2019-03-01T02:01:32.774Z,42.40
2019-03-01T02:02:32.744Z,43.80
2019-03-01T02:03:32.715Z,44.70
2019-03-01T02:04:32.684Z,43.40
2019-03-01T02:05:32.654Z,42.00
2019-03-01T02:06:32.625Z,43.60
2019-03-01T02:07:32.605Z,45.00
2019-03-01T02:08:32.568Z,43.70
2019-03-01T02:09:32.536Z,41.60
2019-03-01T02:10:32.513Z,41.20
2019-03-01T02:11:32.476Z,44.40
2019-03-01T02:12:32.448Z,42.40
2019-03-01T02:13:32.417Z,41.80
2019-03-01T02:14:32.386Z,48.10
2019-03-01T02:15:32.358Z,47.50
2019-03-01T02:16:32.328Z,47.90
2019-03-01T02:17:32.298Z,47.90
2019-03-01T02:18:32.268Z,49.40
2019-03-01T02:19:32.237Z,47.80
2019-03-01T02:20:32.208Z,49.00
2019-03-01T02:21:32.179Z,45.90
2019-03-01T02:22:32.148Z,47.30
2019-03-01T02:23:32.120Z,48.20
2019-03-01T02:24:32.090Z,50.20
2019-03-01T02:25:32.060Z,48.00
2019-03-01T02:26:32.029Z,47.40
2019-03-01T02:27:32.000Z,44.60
2019-03-01T02:28:31.972Z,44.80
2019-03-01T02:29:31.948Z,45.30
2019-03-01T02:30:31.911Z,46.20
2019-03-01T02:31:31.888Z,46.30
2019-03-01T02:32:31.855Z,46.70
2019-03-01T02:33:31.822Z,46.20
2019-03-01T02:34:31.792Z,46.60
2019-03-01T02:35:31.763Z,48.10
2019-03-01T02:36:31.733Z,47.00
2019-03-01T02:37:31.715Z,46.70
2019-03-01T02:38:31.675Z,45.90
2019-03-01T02:39:31.645Z,47.60
2019-03-01T02:40:31.615Z,45.00
2019-03-01T02:41:31.586Z,47.00
2019-03-01T02:42:31.553Z,46.30
2019-03-01T02:43:31.525Z,47.90
2019-03-01T02:44:31.494Z,47.90
2019-03-01T02:45:31.467Z,49.30
2019-03-01T02:46:31.436Z,48.90
2019-03-01T02:47:31.407Z,49.20
2019-03-01T02:48:31.376Z,50.90
2019-03-01T02:49:31.345Z,47.00
2019-03-01T02:50:31.318Z,46.50
2019-03-01T02:51:31.289Z,47.90
2019-03-01T02:52:31.265Z,47.10
2019-03-01T02:53:31.226Z,47.80
2019-03-01T02:54:31.199Z,47.50
2019-03-01T02:55:31.184Z,50.00
2019-03-01T02:56:31.139Z,49.30
2019-03-01T02:57:31.120Z,50.90
2019-03-01T02:58:31.080Z,51.10
2019-03-01T02:59:31.051Z,48.20
2019-03-01T03:00:31.022Z,49.60
2019-03-01T03:01:30.991Z,49.40
2019-03-01T03:02:30.961Z,48.30
2019-03-01T03:03:30.933Z,44.90
2019-03-01T03:04:30.902Z,49.00
2019-03-01T03:05:30.871Z,52.00
2019-03-01T03:06:30.843Z,53.70
2019-03-01T03:07:30.812Z,54.10
2019-03-01T03:08:30.785Z,54.00
2019-03-01T03:09:30.756Z,47.70
2019-03-01T03:10:30.735Z,49.50
2019-03-01T03:11:30.699Z,50.30
2019-03-01T03:12:30.666Z,47.40
2019-03-01T03:13:30.635Z,47.90
2019-03-01T03:14:30.607Z,49.20
2019-03-01T03:15:30.578Z,49.70
2019-03-01T03:16:30.547Z,48.90
2019-03-01T03:17:30.519Z,50.30
2019-03-01T03:18:30.491Z,48.50
2019-03-01T03:19:30.458Z,49.60
2019-03-01T03:20:30.430Z,50.80
2019-03-01T03:21:30.400Z,49.20
2019-03-01T03:22:30.368Z,49.20
2019-03-01T03:23:30.357Z,49.80
2019-03-01T03:24:30.314Z,50.50
2019-03-01T03:25:30.279Z,49.50
2019-03-01T03:26:30.254Z,49.20
2019-03-01T03:27:30.222Z,51.90
2019-03-01T03:28:30.191Z,50.70
2019-03-01T03:29:30.237Z,52.80
2019-03-01T03:30:30.133Z,53.90
2019-03-01T03:31:30.112Z,53.40
2019-03-01T03:32:30.073Z,53.30
2019-03-01T03:33:30.048Z,54.50
2019-03-01T03:34:30.012Z,54.80
2019-03-01T03:35:29.989Z,52.10
2019-03-01T03:36:29.953Z,54.20
2019-03-01T03:37:29.924Z,54.50
2019-03-01T03:38:29.894Z,54.20
2019-03-01T03:39:29.873Z,58.10
2019-03-01T03:40:29.835Z,55.20
2019-03-01T03:41:29.803Z,56.90
2019-03-01T03:42:29.772Z,53.70
2019-03-01T03:43:29.743Z,53.00
2019-03-01T03:44:29.714Z,53.80
2019-03-01T03:45:29.683Z,56.00
2019-03-01T03:46:29.652Z,55.80
2019-03-01T03:47:29.627Z,55.00
2019-03-01T03:48:29.593Z,54.50
2019-03-01T03:49:29.574Z,56.30
2019-03-01T03:50:29.540Z,57.10
2019-03-01T03:51:29.505Z,56.50
2019-03-01T03:52:29.475Z,57.90
2019-03-01T03:53:29.443Z,56.10
2019-03-01T03:54:29.413Z,57.30
2019-03-01T03:55:29.385Z,61.20
2019-03-01T03:56:29.354Z,58.90
2019-03-01T03:57:29.323Z,59.70
2019-03-01T03:58:29.293Z,58.90
2019-03-01T03:59:29.263Z,59.00
2019-03-01T04:00:29.234Z,57.00
2019-03-01T04:01:29.204Z,61.30
2019-03-01T04:02:29.176Z,59.30
2019-03-01T04:03:29.148Z,60.70
2019-03-01T04:04:29.113Z,59.70
2019-03-01T04:05:29.087Z,58.80
2019-03-01T04:06:29.076Z,62.80
2019-03-01T04:07:29.022Z,62.10
2019-03-01T04:08:28.993Z,61.80
2019-03-01T04:09:28.963Z,64.30
2019-03-01T04:10:28.934Z,61.70
2019-03-01T04:11:28.902Z,63.20
2019-03-01T04:12:28.873Z,62.60
2019-03-01T04:13:28.843Z,62.90
2019-03-01T04:14:28.816Z,61.90
2019-03-01T04:15:28.787Z,62.90
2019-03-01T04:16:28.755Z,64.60
2019-03-01T04:17:28.725Z,65.50
2019-03-01T04:18:28.698Z,63.70
2019-03-01T04:19:28.676Z,62.00
2019-03-01T04:20:28.651Z,61.30
2019-03-01T04:21:28.603Z,60.50
2019-03-01T04:22:28.577Z,56.70
2019-03-01T04:23:28.635Z,59.00
2019-03-01T04:24:28.516Z,56.60
2019-03-01T04:25:28.484Z,60.90
2019-03-01T04:26:28.458Z,59.00
2019-03-01T04:27:28.426Z,62.40
2019-03-01T04:28:28.395Z,61.60
2019-03-01T04:29:28.366Z,62.60
2019-03-01T04:30:28.336Z,62.90
2019-03-01T04:31:28.309Z,62.30
2019-03-01T04:32:28.279Z,66.90
2019-03-01T04:33:28.247Z,63.80
2019-03-01T04:34:28.220Z,62.70
2019-03-01T04:35:28.187Z,64.20
2019-03-01T04:36:28.160Z,60.00
2019-03-01T04:37:28.129Z,65.40
2019-03-01T04:38:28.102Z,62.70
2019-03-01T04:39:28.068Z,67.50
2019-03-01T04:40:28.040Z,63.30
2019-03-01T04:41:28.010Z,68.10
2019-03-01T04:42:27.980Z,66.80
2019-03-01T04:43:27.952Z,65.30
2019-03-01T04:44:27.921Z,68.80
2019-03-01T04:45:27.894Z,68.70
2019-03-01T04:46:27.862Z,70.50
2019-03-01T04:47:27.836Z,71.60
2019-03-01T04:48:27.802Z,72.10
2019-03-01T04:49:27.772Z,71.10
2019-03-01T04:50:27.744Z,69.60
2019-03-01T04:51:27.715Z,72.30
2019-03-01T04:52:27.684Z,70.80
2019-03-01T04:53:27.655Z,72.00
2019-03-01T04:54:27.624Z,69.40
2019-03-01T04:55:27.595Z,72.10
2019-03-01T04:56:27.568Z,74.50
2019-03-01T04:57:27.539Z,71.20
2019-03-01T04:58:27.505Z,70.90
2019-03-01T04:59:27.476Z,69.90
2019-03-01T05:00:27.447Z,74.50
2019-03-01T05:01:27.417Z,70.90
2019-03-01T05:02:27.388Z,73.80
2019-03-01T05:03:27.358Z,72.20
2019-03-01T05:04:27.330Z,75.80
2019-03-01T05:05:27.297Z,76.90
2019-03-01T05:06:27.269Z,76.30
2019-03-01T05:07:27.239Z,75.90
2019-03-01T05:08:27.460Z,76.50
2019-03-01T05:09:27.179Z,74.50
2019-03-01T05:10:27.151Z,75.80
2019-03-01T05:11:27.121Z,74.40
2019-03-01T05:12:27.089Z,76.30
2019-03-01T05:13:27.061Z,76.20
2019-03-01T05:14:27.035Z,78.10
2019-03-01T05:15:27.000Z,76.20
2019-03-01T05:16:26.971Z,76.10
2019-03-01T05:17:26.941Z,79.00
2019-03-01T05:18:26.911Z,79.30
2019-03-01T05:19:26.882Z,78.10
2019-03-01T05:20:26.853Z,81.30
2019-03-01T05:21:26.819Z,78.50
2019-03-01T05:22:26.792Z,76.70
2019-03-01T05:23:26.764Z,78.50
2019-03-01T05:24:26.731Z,80.50
2019-03-01T05:25:26.703Z,80.70
2019-03-01T05:26:26.671Z,81.90
2019-03-01T05:27:26.641Z,80.10
2019-03-01T05:28:26.612Z,79.30
2019-03-01T05:29:26.582Z,80.00
2019-03-01T05:30:26.557Z,79.60
2019-03-01T05:31:26.523Z,79.20
2019-03-01T05:32:26.491Z,80.90
2019-03-01T05:33:26.461Z,81.10
2019-03-01T05:34:26.431Z,80.10
2019-03-01T05:35:26.410Z,82.80
2019-03-01T05:36:26.374Z,83.80
2019-03-01T05:37:26.343Z,82.20
2019-03-01T05:38:26.315Z,85.70
2019-03-01T05:39:26.283Z,87.90
2019-03-01T05:40:26.253Z,84.60
2019-03-01T05:41:26.223Z,86.40
2019-03-01T05:42:26.196Z,90.40
2019-03-01T05:43:26.165Z,85.70
2019-03-01T05:44:26.135Z,88.20
2019-03-01T05:45:26.105Z,87.90
2019-03-01T05:46:26.074Z,90.60
2019-03-01T05:47:26.044Z,93.10
2019-03-01T05:48:26.019Z,87.80
2019-03-01T05:49:25.983Z,89.70
2019-03-01T05:50:25.954Z,85.80
2019-03-01T05:51:25.925Z,86.20
2019-03-01T05:52:25.897Z,80.30
2019-03-01T05:53:25.865Z,81.50
2019-03-01T05:54:25.837Z,83.60
2019-03-01T05:55:25.816Z,86.80
2019-03-01T05:56:25.813Z,89.00
2019-03-01T05:57:25.746Z,82.60
2019-03-01T05:58:25.717Z,87.60
2019-03-01T05:59:25.687Z,85.70
2019-03-01T06:00:25.659Z,87.60
2019-03-01T06:01:25.630Z,89.10
2019-03-01T06:02:25.599Z,88.60
2019-03-01T06:03:25.568Z,89.00
2019-03-01T06:04:25.543Z,89.80
2019-03-01T06:05:25.509Z,95.20
2019-03-01T06:06:25.480Z,91.80
2019-03-01T06:07:25.451Z,94.20
2019-03-01T06:08:25.422Z,93.40
2019-03-01T06:09:25.392Z,94.70
2019-03-01T06:10:25.361Z,90.40
2019-03-01T06:11:25.334Z,93.50
2019-03-01T06:12:25.305Z,93.30
2019-03-01T06:13:25.273Z,94.20
2019-03-01T06:14:25.243Z,94.10
2019-03-01T06:15:25.216Z,95.20
2019-03-01T06:16:25.187Z,94.40
2019-03-01T06:17:25.155Z,91.50
2019-03-01T06:18:25.125Z,95.60
2019-03-01T06:19:25.100Z,97.80
2019-03-01T06:20:25.068Z,92.60
2019-03-01T06:21:25.037Z,93.30
2019-03-01T06:22:25.008Z,92.70
2019-03-01T06:23:24.979Z,89.40
2019-03-01T06:24:24.950Z,89.40
2019-03-01T06:25:24.919Z,88.60
2019-03-01T06:26:24.891Z,90.20
2019-03-01T06:27:24.860Z,92.50
2019-03-01T06:28:24.830Z,93.00
2019-03-01T06:29:24.801Z,91.90
2019-03-01T06:30:24.771Z,90.60
2019-03-01T06:31:24.742Z,88.60
2019-03-01T06:32:24.712Z,90.50
2019-03-01T06:33:24.685Z,87.90
2019-03-01T06:34:24.652Z,86.60
2019-03-01T06:35:24.621Z,87.60
2019-03-01T06:36:24.595Z,91.30
2019-03-01T06:37:24.624Z,86.20
2019-03-01T06:38:24.532Z,86.60
2019-03-01T06:39:24.503Z,87.10
2019-03-01T06:40:24.474Z,85.70
2019-03-01T06:41:24.444Z,85.40
2019-03-01T06:42:24.414Z,88.00
2019-03-01T06:43:26.298Z,85.90
2019-03-01T06:44:24.355Z,83.40
2019-03-01T06:45:24.324Z,84.30
2019-03-01T06:46:24.294Z,85.10
2019-03-01T06:47:24.267Z,85.00
2019-03-01T06:48:24.235Z,86.60
2019-03-01T06:49:24.206Z,85.10
2019-03-01T06:50:24.176Z,82.90
2019-03-01T06:51:28.814Z,84.60
2019-03-01T06:52:24.117Z,91.90
2019-03-01T06:53:24.085Z,91.60
2019-03-01T06:54:24.057Z,86.40
2019-03-01T06:55:24.028Z,86.40
2019-03-01T06:56:23.998Z,85.50
2019-03-01T06:57:23.967Z,88.40
2019-03-01T06:58:23.938Z,88.70
2019-03-01T06:59:23.907Z,83.20
2019-03-01T07:00:23.880Z,85.00
2019-03-01T07:01:23.848Z,77.80
2019-03-01T07:02:23.818Z,80.10
2019-03-01T07:03:23.791Z,79.90
2019-03-01T07:04:23.763Z,79.30
2019-03-01T07:05:23.731Z,79.50
2019-03-01T07:06:23.701Z,81.30
2019-03-01T07:07:23.675Z,81.30
2019-03-01T07:08:23.642Z,77.50
2019-03-01T07:09:23.612Z,78.30
2019-03-01T07:10:23.581Z,76.90
2019-03-01T07:11:23.552Z,79.10
2019-03-01T07:12:23.525Z,78.00
2019-03-01T07:13:23.495Z,78.50
2019-03-01T07:14:23.484Z,73.70
2019-03-01T07:15:23.434Z,80.00
2019-03-01T07:16:23.404Z,75.50
2019-03-01T07:17:23.375Z,77.50
2019-03-01T07:18:23.347Z,76.90
2019-03-01T07:19:23.318Z,71.80
2019-03-01T07:20:23.288Z,80.10
2019-03-01T07:21:23.257Z,74.70
2019-03-01T07:22:23.225Z,79.30
2019-03-01T07:23:23.197Z,80.30
2019-03-01T07:24:23.216Z,80.20
2019-03-01T07:25:23.138Z,77.90
2019-03-01T07:26:23.109Z,75.60
2019-03-01T07:27:23.078Z,80.70
2019-03-01T07:28:23.050Z,77.20
2019-03-01T07:29:23.019Z,74.50
2019-03-01T07:30:22.992Z,76.90
2019-03-01T07:31:22.969Z,76.80
2019-03-01T07:32:22.931Z,77.60
2019-03-01T07:33:22.900Z,76.30
2019-03-01T07:34:22.874Z,74.10
2019-03-01T07:35:22.848Z,74.80
2019-03-01T07:36:22.813Z,73.60
2019-03-01T07:37:22.781Z,79.50
2019-03-01T07:38:22.752Z,80.90
2019-03-01T07:39:22.723Z,73.60
2019-03-01T07:40:22.692Z,72.20
2019-03-01T07:41:22.664Z,70.70
2019-03-01T07:42:22.634Z,75.70
2019-03-01T07:43:22.607Z,74.40
2019-03-01T07:44:22.575Z,78.00
2019-03-01T07:45:22.545Z,73.10
2019-03-01T07:46:22.752Z,76.50
2019-03-01T07:47:22.487Z,69.50
2019-03-01T07:48:22.456Z,68.40
2019-03-01T07:49:22.424Z,79.70
2019-03-01T07:50:22.396Z,77.00
2019-03-01T07:51:22.366Z,72.40
2019-03-01T07:52:22.337Z,66.50
2019-03-01T07:53:22.307Z,75.50
2019-03-01T07:54:22.551Z,76.60
2019-03-01T07:55:24.954Z,72.40
2019-03-01T07:56:22.220Z,73.30
2019-03-01T07:57:22.189Z,79.40
2019-03-01T07:58:25.688Z,85.10
2019-03-01T07:59:23.950Z,80.20
2019-03-01T08:00:22.099Z,80.90
2019-03-01T08:01:22.070Z,77.30
2019-03-01T08:02:22.041Z,76.40
2019-03-01T08:03:22.008Z,80.60
2019-03-01T08:04:23.760Z,76.80
2019-03-01T08:05:21.949Z,76.00
2019-03-01T08:06:21.919Z,76.20
2019-03-01T08:07:23.591Z,76.30
2019-03-01T08:08:21.860Z,78.20
2019-03-01T08:09:21.830Z,81.50
2019-03-01T08:10:22.904Z,78.50
2019-03-01T08:11:21.771Z,82.50
2019-03-01T08:12:21.741Z,87.00
2019-03-01T08:13:21.711Z,93.90
2019-03-01T08:14:24.612Z,85.10
2019-03-01T08:15:21.653Z,80.90
2019-03-01T08:16:21.631Z,77.70
2019-03-01T08:17:21.594Z,76.70
2019-03-01T08:18:21.564Z,75.80
2019-03-01T08:19:23.453Z,81.10
2019-03-01T08:20:21.507Z,77.50
2019-03-01T08:21:21.481Z,79.60
2019-03-01T08:22:24.856Z,74.90
2019-03-01T08:23:21.419Z,72.60
2019-03-01T08:24:21.389Z,69.60
2019-03-01T08:25:23.493Z,65.60
2019-03-01T08:26:21.329Z,67.80
2019-03-01T08:27:21.301Z,72.60
2019-03-01T08:28:21.874Z,72.70
2019-03-01T08:29:21.240Z,70.10
2019-03-01T08:30:21.211Z,73.00
2019-03-01T08:31:22.184Z,74.20
2019-03-01T08:32:21.152Z,76.00
2019-03-01T08:33:21.122Z,79.10
2019-03-01T08:34:21.092Z,77.40
2019-03-01T08:35:21.062Z,72.40
2019-03-01T08:36:21.034Z,75.60
2019-03-01T08:37:21.003Z,73.00
2019-03-01T08:38:20.975Z,78.20
2019-03-01T08:39:20.954Z,80.80
2019-03-01T08:40:20.933Z,78.00
2019-03-01T08:41:21.540Z,78.10
2019-03-01T08:42:20.858Z,72.90
2019-03-01T08:43:20.825Z,74.00
2019-03-01T08:44:22.927Z,69.80
2019-03-01T08:45:20.766Z,73.80
2019-03-01T08:46:20.737Z,73.80
2019-03-01T08:47:24.458Z,76.20
2019-03-01T08:48:20.678Z,75.70
2019-03-01T08:49:20.646Z,70.60
2019-03-01T08:50:20.617Z,75.80
2019-03-01T08:51:22.674Z,75.20
2019-03-01T08:52:20.558Z,75.60
2019-03-01T08:53:20.528Z,73.40
2019-03-01T08:54:22.891Z,75.70
2019-03-01T08:55:20.470Z,76.00
2019-03-01T08:56:26.073Z,77.80
2019-03-01T08:57:22.552Z,76.40
2019-03-01T08:58:20.380Z,73.60
2019-03-01T08:59:20.352Z,72.60
2019-03-01T09:00:23.040Z,72.40
2019-03-01T09:01:20.294Z,73.90
2019-03-01T09:02:20.265Z,75.10
2019-03-01T09:03:22.140Z,70.30
2019-03-01T09:04:21.572Z,70.00
2019-03-01T09:05:20.216Z,68.20
2019-03-01T09:06:20.143Z,71.00
2019-03-01T09:07:20.149Z,72.00
2019-03-01T09:08:20.085Z,69.70
2019-03-01T09:09:20.938Z,67.60
2019-03-01T09:10:20.030Z,65.40
2019-03-01T09:11:19.996Z,65.90
2019-03-01T09:12:19.968Z,65.30
2019-03-01T09:13:19.939Z,63.30
2019-03-01T09:14:22.772Z,65.90
2019-03-01T09:15:19.881Z,61.70
2019-03-01T09:16:19.851Z,64.40
2019-03-01T09:17:19.824Z,63.90
2019-03-01T09:18:19.791Z,60.00
2019-03-01T09:19:22.399Z,62.50
2019-03-01T09:20:19.732Z,59.30
2019-03-01T09:21:19.704Z,62.20
2019-03-01T09:22:19.681Z,61.00
2019-03-01T09:23:24.172Z,61.50
2019-03-01T09:24:19.617Z,57.40
2019-03-01T09:25:19.587Z,56.00
2019-03-01T09:26:20.131Z,58.90
2019-03-01T09:27:19.529Z,61.00
2019-03-01T09:28:19.503Z,59.60
2019-03-01T09:29:19.550Z,58.90
2019-03-01T09:30:19.442Z,59.60
2019-03-01T09:31:19.412Z,54.50
2019-03-01T09:32:19.384Z,55.70
2019-03-01T09:33:21.556Z,54.60
2019-03-01T09:34:19.326Z,53.60
2019-03-01T09:35:19.296Z,56.00
2019-03-01T09:36:21.380Z,56.70
2019-03-01T09:37:19.240Z,52.70
2019-03-01T09:38:19.209Z,54.10
2019-03-01T09:39:19.319Z,56.20
2019-03-01T09:40:19.153Z,55.00
2019-03-01T09:41:19.120Z,54.30
2019-03-01T09:42:19.091Z,56.10
2019-03-01T09:43:19.064Z,52.80
2019-03-01T09:44:19.033Z,50.20
2019-03-01T09:45:19.434Z,53.90
2019-03-01T09:46:20.882Z,52.10
2019-03-01T09:47:18.946Z,49.70
2019-03-01T09:48:18.930Z,51.00
2019-03-01T09:49:21.402Z,49.40
2019-03-01T09:50:18.871Z,48.80
2019-03-01T09:51:18.830Z,48.50
2019-03-01T09:52:20.419Z,47.80
2019-03-01T09:53:18.770Z,47.60
2019-03-01T09:54:18.740Z,46.70
2019-03-01T09:55:18.712Z,48.80
2019-03-01T09:56:18.683Z,46.00
2019-03-01T09:57:18.654Z,47.40
2019-03-01T09:58:18.626Z,48.30
2019-03-01T09:59:18.596Z,49.60
2019-03-01T10:00:18.566Z,48.50
2019-03-01T10:01:18.540Z,48.50
2019-03-01T10:02:18.506Z,42.50
2019-03-01T10:03:18.479Z,41.60
2019-03-01T10:04:18.504Z,40.80
2019-03-01T10:05:18.420Z,43.70
2019-03-01T10:06:18.390Z,43.40
2019-03-01T10:07:18.363Z,43.60
2019-03-01T10:08:18.332Z,42.10
2019-03-01T10:09:18.300Z,42.80
2019-03-01T10:10:18.271Z,43.20
2019-03-01T10:11:18.242Z,42.40
2019-03-01T10:12:18.213Z,43.70
2019-03-01T10:13:18.183Z,43.60
2019-03-01T10:14:19.730Z,44.00
2019-03-01T10:15:18.126Z,43.20
2019-03-01T10:16:18.094Z,42.20
2019-03-01T10:17:18.063Z,42.70
2019-03-01T10:18:18.036Z,42.10
2019-03-01T10:19:18.004Z,38.50
2019-03-01T10:20:17.975Z,39.40
2019-03-01T10:21:17.944Z,41.00
2019-03-01T10:22:17.914Z,42.40
2019-03-01T10:23:17.885Z,40.70
2019-03-01T10:24:17.854Z,41.40
2019-03-01T10:25:17.825Z,42.50
2019-03-01T10:26:17.794Z,39.70
2019-03-01T10:27:17.764Z,40.00
2019-03-01T10:28:17.735Z,41.20
2019-03-01T10:29:17.703Z,44.40
2019-03-01T10:30:17.673Z,42.50
2019-03-01T10:31:17.645Z,43.40
2019-03-01T10:32:17.613Z,44.40
2019-03-01T10:33:17.582Z,44.40
2019-03-01T10:34:17.552Z,42.60
2019-03-01T10:35:17.524Z,43.00
2019-03-01T10:36:17.493Z,40.80
2019-03-01T10:37:17.462Z,36.90
2019-03-01T10:38:17.433Z,38.50
2019-03-01T10:39:17.401Z,39.50
2019-03-01T10:40:17.375Z,34.70
2019-03-01T10:41:17.342Z,34.80
2019-03-01T10:42:17.312Z,34.10
2019-03-01T10:43:17.282Z,31.20
2019-03-01T10:44:17.251Z,29.40
2019-03-01T10:45:17.220Z,34.70
2019-03-01T10:46:17.189Z,35.40
2019-03-01T10:47:17.160Z,30.80
2019-03-01T10:48:17.130Z,33.60
2019-03-01T10:49:17.101Z,33.50
2019-03-01T10:50:17.066Z,30.30
2019-03-01T10:51:17.043Z,20.00
2019-03-01T10:52:17.007Z,24.30
2019-03-01T10:53:16.977Z,24.70
2019-03-01T10:54:16.952Z,26.00
2019-03-01T10:55:16.917Z,24.40
2019-03-01T10:56:16.885Z,26.10
2019-03-01T10:57:16.853Z,24.80
2019-03-01T10:58:16.824Z,24.30
2019-03-01T10:59:16.794Z,25.50
2019-03-01T11:00:16.765Z,26.20
2019-03-01T11:01:16.733Z,27.70
2019-03-01T11:02:16.701Z,27.30
2019-03-01T11:03:16.670Z,28.20
2019-03-01T11:04:16.641Z,26.50
2019-03-01T11:05:16.609Z,28.50
2019-03-01T11:06:16.580Z,27.00
2019-03-01T11:07:16.549Z,26.20
2019-03-01T11:08:16.519Z,22.90
2019-03-01T11:09:16.487Z,25.00
2019-03-01T11:10:16.457Z,24.70
2019-03-01T11:11:16.426Z,26.60
2019-03-01T11:12:16.399Z,26.20
2019-03-01T11:13:16.366Z,25.60
2019-03-01T11:14:16.336Z,23.40
2019-03-01T11:15:16.307Z,25.10
2019-03-01T11:16:16.277Z,25.30
2019-03-01T11:17:16.245Z,24.10
2019-03-01T11:18:16.215Z,22.30
2019-03-01T11:19:16.185Z,23.30
2019-03-01T11:20:16.154Z,24.50
2019-03-01T11:21:16.123Z,24.90
2019-03-01T11:22:16.094Z,22.70
2019-03-01T11:23:16.065Z,24.00
2019-03-01T11:24:16.036Z,25.00
2019-03-01T11:25:16.005Z,23.40
2019-03-01T11:26:15.975Z,20.60
2019-03-01T11:27:15.946Z,20.40
2019-03-01T11:28:15.917Z,21.30
2019-03-01T11:29:15.891Z,19.80
2019-03-01T11:30:15.858Z,22.20
2019-03-01T11:31:15.826Z,21.80
2019-03-01T11:32:15.801Z,21.10
2019-03-01T11:33:15.767Z,19.00
2019-03-01T11:34:15.740Z,19.70
2019-03-01T11:35:15.709Z,20.60
2019-03-01T11:36:15.680Z,28.10
2019-03-01T11:37:15.651Z,23.30
2019-03-01T11:38:15.621Z,20.40
2019-03-01T11:39:15.593Z,16.20
2019-03-01T11:40:15.562Z,20.30
2019-03-01T11:41:15.533Z,20.50
2019-03-01T11:42:15.505Z,22.30
2019-03-01T11:43:15.476Z,21.50
2019-03-01T11:44:15.447Z,20.70
2019-03-01T11:45:15.416Z,18.00
2019-03-01T11:46:15.388Z,19.90
2019-03-01T11:47:15.360Z,20.10
2019-03-01T11:48:15.330Z,18.20
2019-03-01T11:49:15.301Z,19.30
2019-03-01T11:50:15.271Z,19.60
2019-03-01T11:51:15.243Z,17.20
2019-03-01T11:52:15.213Z,16.30
2019-03-01T11:53:15.186Z,15.90
2019-03-01T11:54:15.156Z,16.20
2019-03-01T11:55:15.127Z,16.60
2019-03-01T11:56:15.103Z,16.50
2019-03-01T11:57:15.070Z,16.70
2019-03-01T11:58:15.041Z,16.30
2019-03-01T11:59:15.016Z,14.00
2019-03-01T12:00:14.985Z,15.10
2019-03-01T12:01:17.412Z,15.20
2019-03-01T12:02:14.929Z,13.40
2019-03-01T12:03:15.556Z,15.00
2019-03-01T12:04:14.869Z,15.30
2019-03-01T12:05:14.841Z,13.30
2019-03-01T12:06:14.809Z,13.50
2019-03-01T12:07:14.787Z,14.90
2019-03-01T12:08:14.751Z,15.00
2019-03-01T12:09:14.776Z,15.30
2019-03-01T12:10:14.693Z,13.80
2019-03-01T12:11:14.664Z,12.00
2019-03-01T12:12:14.636Z,13.40
2019-03-01T12:13:14.607Z,12.10
2019-03-01T12:14:14.578Z,10.80
2019-03-01T12:15:14.551Z,13.20
2019-03-01T12:16:14.522Z,13.40
2019-03-01T12:17:14.491Z,11.90
2019-03-01T12:18:14.465Z,11.00
2019-03-01T12:19:14.433Z,10.30
2019-03-01T12:20:14.414Z,9.90
2019-03-01T12:21:14.376Z,9.30
2019-03-01T12:22:17.072Z,8.90
2019-03-01T12:23:14.319Z,8.40
2019-03-01T12:24:14.288Z,9.90
2019-03-01T12:25:14.257Z,10.60
2019-03-01T12:26:14.230Z,13.00
2019-03-01T12:27:14.201Z,11.30
2019-03-01T12:28:14.173Z,9.20
2019-03-01T12:29:14.143Z,9.80
2019-03-01T12:30:14.113Z,9.50
2019-03-01T12:31:14.086Z,8.30
2019-03-01T12:32:14.058Z,8.30
2019-03-01T12:33:14.031Z,7.60
2019-03-01T12:34:13.997Z,7.20
2019-03-01T12:35:13.970Z,7.90
2019-03-01T12:36:13.944Z,7.20
2019-03-01T12:37:13.913Z,8.10
2019-03-01T12:38:13.882Z,7.10
2019-03-01T12:39:13.856Z,7.30
2019-03-01T12:40:13.829Z,6.30
2019-03-01T12:41:13.797Z,6.40
2019-03-01T12:42:13.767Z,6.90
2019-03-01T12:43:13.740Z,5.40
2019-03-01T12:44:13.709Z,5.80
2019-03-01T12:45:13.681Z,5.00
2019-03-01T12:46:13.657Z,4.90
2019-03-01T12:47:13.627Z,5.20
2019-03-01T12:48:13.596Z,5.00
2019-03-01T12:49:13.564Z,5.40
2019-03-01T12:50:13.536Z,5.40
2019-03-01T12:51:13.510Z,5.30
2019-03-01T12:52:13.479Z,5.20
2019-03-01T12:53:13.448Z,5.60